createdAt,value
2022-08-20T00:22:16.468Z,381
2022-08-20T00:42:16.461Z,382
2022-08-20T01:02:16.533Z,381
2022-08-20T01:22:16.482Z,380
2022-08-20T01:42:16.522Z,381
2022-08-20T02:02:16.024Z,383
2022-08-20T02:22:16.533Z,383
2022-08-20T02:42:16.542Z,383
2022-08-20T03:02:16.549Z,383
2022-08-20T03:22:16.559Z,384
2022-08-20T03:42:16.580Z,386
2022-08-20T04:02:16.643Z,384
2022-08-20T04:22:16.150Z,386
2022-08-20T04:42:16.615Z,383
2022-08-20T05:02:16.638Z,386
2022-08-20T05:22:16.649Z,385
2022-08-20T05:42:16.460Z,385
2022-08-20T06:02:16.674Z,387
2022-08-20T06:22:17.654Z,385
2022-08-20T06:42:20.592Z,388
2022-08-20T07:02:16.712Z,390
2022-08-20T07:22:16.763Z,389
2022-08-20T07:42:16.745Z,389
2022-08-20T08:02:16.761Z,388
2022-08-20T08:42:16.774Z,388
2022-08-20T09:02:16.913Z,388
2022-08-20T09:22:16.819Z,386
2022-08-20T09:42:16.829Z,392
2022-08-20T10:02:16.834Z,401
2022-08-20T10:22:16.847Z,403
2022-08-20T10:42:16.854Z,403
2022-08-20T11:02:16.943Z,405
2022-08-20T11:22:16.405Z,401
2022-08-20T11:42:16.906Z,404
2022-08-20T12:02:16.950Z,401
2022-08-20T12:22:17.574Z,396
2022-08-20T12:42:16.462Z,399
2022-08-20T13:02:18.556Z,401
2022-08-20T13:22:16.956Z,402
2022-08-20T13:42:16.982Z,398
2022-08-20T14:02:16.984Z,390
2022-08-20T14:22:16.983Z,390
2022-08-20T14:42:17.004Z,391
2022-08-20T15:02:17.007Z,386
2022-08-20T15:22:17.053Z,392
2022-08-20T15:42:16.540Z,392
2022-08-20T16:02:17.058Z,391
2022-08-20T16:22:16.830Z,391
2022-08-20T16:42:17.103Z,392
2022-08-20T17:02:17.076Z,387
2022-08-20T17:22:17.088Z,387
2022-08-20T17:42:17.100Z,392
2022-08-20T18:02:17.185Z,390
2022-08-20T18:22:17.119Z,389
2022-08-20T18:42:16.939Z,389
2022-08-20T19:02:17.154Z,388
2022-08-20T19:22:17.165Z,387
2022-08-20T19:42:17.177Z,381
2022-08-20T20:02:20.106Z,385
2022-08-20T20:22:19.791Z,388
2022-08-20T20:42:17.207Z,385
2022-08-20T21:02:17.250Z,380
2022-08-20T21:22:17.242Z,386
2022-08-20T21:42:28.900Z,387
2022-08-20T22:02:17.070Z,386
2022-08-20T22:22:17.292Z,387
2022-08-20T22:42:17.332Z,387
2022-08-20T23:02:17.319Z,389
2022-08-20T23:22:17.332Z,391
2022-08-20T23:42:17.376Z,392
